sensor_id;sensor_type;location;lat;lon;timestamp;temperature;humidity
22173;DHT22;11252;50.596;17.648;2023-08-30T00:00:19;15.00;92.20
22173;DHT22;11252;50.596;17.648;2023-08-30T00:02:49;15.00;92.20
22173;DHT22;11252;50.596;17.648;2023-08-30T00:05:17;15.00;92.20
22173;DHT22;11252;50.596;17.648;2023-08-30T00:07:45;15.10;92.20
22173;DHT22;11252;50.596;17.648;2023-08-30T00:10:14;15.10;92.20
22173;DHT22;11252;50.596;17.648;2023-08-30T00:12:41;15.10;92.20
22173;DHT22;11252;50.596;17.648;2023-08-30T00:15:08;15.00;92.20
22173;DHT22;11252;50.596;17.648;2023-08-30T00:17:36;15.00;92.20
22173;DHT22;11252;50.596;17.648;2023-08-30T00:20:03;15.00;92.20
22173;DHT22;11252;50.596;17.648;2023-08-30T00:22:31;15.00;92.20
22173;DHT22;11252;50.596;17.648;2023-08-30T00:24:58;15.00;92.20
22173;DHT22;11252;50.596;17.648;2023-08-30T00:27:25;15.00;92.20
22173;DHT22;11252;50.596;17.648;2023-08-30T00:29:52;15.10;92.20
22173;DHT22;11252;50.596;17.648;2023-08-30T00:32:19;15.10;92.20
22173;DHT22;11252;50.596;17.648;2023-08-30T00:34:49;15.00;92.20
22173;DHT22;11252;50.596;17.648;2023-08-30T00:37:16;15.10;92.20
22173;DHT22;11252;50.596;17.648;2023-08-30T00:39:43;15.00;92.20
22173;DHT22;11252;50.596;17.648;2023-08-30T00:42:11;15.00;92.20
22173;DHT22;11252;50.596;17.648;2023-08-30T00:44:38;15.00;92.20
22173;DHT22;11252;50.596;17.648;2023-08-30T00:47:05;15.00;92.20
22173;DHT22;11252;50.596;17.648;2023-08-30T00:49:33;15.00;92.20
22173;DHT22;11252;50.596;17.648;2023-08-30T00:52:06;15.10;92.20
22173;DHT22;11252;50.596;17.648;2023-08-30T00:54:34;15.10;92.20
22173;DHT22;11252;50.596;17.648;2023-08-30T00:57:02;15.10;92.20
22173;DHT22;11252;50.596;17.648;2023-08-30T00:59:33;15.10;92.20
22173;DHT22;11252;50.596;17.648;2023-08-30T01:02:01;15.10;92.20
22173;DHT22;11252;50.596;17.648;2023-08-30T01:04:28;15.00;92.20
22173;DHT22;11252;50.596;17.648;2023-08-30T01:06:56;15.00;92.20
22173;DHT22;11252;50.596;17.648;2023-08-30T01:09:24;15.00;92.20
22173;DHT22;11252;50.596;17.648;2023-08-30T01:12:00;15.00;92.20
22173;DHT22;11252;50.596;17.648;2023-08-30T01:17:16;15.00;92.20
22173;DHT22;11252;50.596;17.648;2023-08-30T01:28:04;15.00;92.20
22173;DHT22;11252;50.596;17.648;2023-08-30T01:30:34;15.00;92.20
22173;DHT22;11252;50.596;17.648;2023-08-30T01:33:04;15.00;92.20
22173;DHT22;11252;50.596;17.648;2023-08-30T01:35:35;15.00;92.20
22173;DHT22;11252;50.596;17.648;2023-08-30T01:38:04;15.00;92.20
22173;DHT22;11252;50.596;17.648;2023-08-30T01:40:38;15.00;92.20
22173;DHT22;11252;50.596;17.648;2023-08-30T01:43:07;15.00;92.20
22173;DHT22;11252;50.596;17.648;2023-08-30T01:45:38;15.00;92.20
22173;DHT22;11252;50.596;17.648;2023-08-30T01:48:09;15.00;92.20
22173;DHT22;11252;50.596;17.648;2023-08-30T01:50:39;15.00;92.20
22173;DHT22;11252;50.596;17.648;2023-08-30T01:53:08;15.00;92.20
22173;DHT22;11252;50.596;17.648;2023-08-30T01:55:36;15.00;92.20
22173;DHT22;11252;50.596;17.648;2023-08-30T01:58:06;15.00;92.20
22173;DHT22;11252;50.596;17.648;2023-08-30T02:00:35;15.00;92.20
22173;DHT22;11252;50.596;17.648;2023-08-30T02:03:10;15.00;92.20
22173;DHT22;11252;50.596;17.648;2023-08-30T02:06:29;15.00;92.20
22173;DHT22;11252;50.596;17.648;2023-08-30T02:08:41;15.00;92.20
22173;DHT22;11252;50.596;17.648;2023-08-30T02:11:17;15.00;92.20
22173;DHT22;11252;50.596;17.648;2023-08-30T02:13:46;15.00;92.20
22173;DHT22;11252;50.596;17.648;2023-08-30T02:16:13;15.00;92.20
22173;DHT22;11252;50.596;17.648;2023-08-30T02:18:41;15.00;92.20
22173;DHT22;11252;50.596;17.648;2023-08-30T02:21:09;15.00;92.20
22173;DHT22;11252;50.596;17.648;2023-08-30T02:23:36;15.00;92.20
22173;DHT22;11252;50.596;17.648;2023-08-30T02:26:03;15.00;92.20
22173;DHT22;11252;50.596;17.648;2023-08-30T02:28:30;15.00;92.20
22173;DHT22;11252;50.596;17.648;2023-08-30T02:30:58;15.00;92.20
22173;DHT22;11252;50.596;17.648;2023-08-30T02:33:25;15.00;92.20
22173;DHT22;11252;50.596;17.648;2023-08-30T02:35:52;15.00;92.20
22173;DHT22;11252;50.596;17.648;2023-08-30T02:38:20;15.00;92.20
22173;DHT22;11252;50.596;17.648;2023-08-30T02:40:48;15.00;92.20
22173;DHT22;11252;50.596;17.648;2023-08-30T02:43:15;15.00;92.20
22173;DHT22;11252;50.596;17.648;2023-08-30T02:45:42;15.00;92.20
22173;DHT22;11252;50.596;17.648;2023-08-30T02:48:09;15.00;92.20
22173;DHT22;11252;50.596;17.648;2023-08-30T02:50:37;14.90;92.20
22173;DHT22;11252;50.596;17.648;2023-08-30T02:53:04;14.90;92.20
22173;DHT22;11252;50.596;17.648;2023-08-30T02:55:31;15.00;92.20
22173;DHT22;11252;50.596;17.648;2023-08-30T02:57:58;15.00;92.20
22173;DHT22;11252;50.596;17.648;2023-08-30T03:00:25;15.00;92.20
22173;DHT22;11252;50.596;17.648;2023-08-30T03:02:52;15.00;92.20
22173;DHT22;11252;50.596;17.648;2023-08-30T03:05:20;15.00;92.20
22173;DHT22;11252;50.596;17.648;2023-08-30T03:07:46;14.90;92.20
22173;DHT22;11252;50.596;17.648;2023-08-30T03:10:13;14.90;92.20
22173;DHT22;11252;50.596;17.648;2023-08-30T03:12:40;15.00;92.20
22173;DHT22;11252;50.596;17.648;2023-08-30T03:15:07;15.00;92.20
22173;DHT22;11252;50.596;17.648;2023-08-30T03:17:35;15.00;92.20
22173;DHT22;11252;50.596;17.648;2023-08-30T03:20:02;14.90;92.20
22173;DHT22;11252;50.596;17.648;2023-08-30T03:22:34;14.90;92.20
22173;DHT22;11252;50.596;17.648;2023-08-30T03:25:01;14.90;92.20
22173;DHT22;11252;50.596;17.648;2023-08-30T03:27:30;14.90;92.20
22173;DHT22;11252;50.596;17.648;2023-08-30T03:29:59;14.90;92.20
22173;DHT22;11252;50.596;17.648;2023-08-30T03:32:26;14.90;92.20
22173;DHT22;11252;50.596;17.648;2023-08-30T03:34:53;14.90;92.20
22173;DHT22;11252;50.596;17.648;2023-08-30T03:37:20;14.90;92.20
22173;DHT22;11252;50.596;17.648;2023-08-30T03:39:47;14.90;92.20
22173;DHT22;11252;50.596;17.648;2023-08-30T03:42:15;14.90;92.20
22173;DHT22;11252;50.596;17.648;2023-08-30T03:44:42;14.90;92.20
22173;DHT22;11252;50.596;17.648;2023-08-30T03:47:09;14.90;92.20
22173;DHT22;11252;50.596;17.648;2023-08-30T03:49:36;14.90;92.20
22173;DHT22;11252;50.596;17.648;2023-08-30T03:52:04;14.90;92.20
22173;DHT22;11252;50.596;17.648;2023-08-30T03:54:31;14.90;92.20
22173;DHT22;11252;50.596;17.648;2023-08-30T03:56:58;14.90;92.20
22173;DHT22;11252;50.596;17.648;2023-08-30T03:59:26;14.80;92.20
22173;DHT22;11252;50.596;17.648;2023-08-30T04:01:55;14.80;92.20
22173;DHT22;11252;50.596;17.648;2023-08-30T04:04:22;14.80;92.20
22173;DHT22;11252;50.596;17.648;2023-08-30T04:06:49;14.80;92.20
22173;DHT22;11252;50.596;17.648;2023-08-30T04:09:16;14.80;92.20
22173;DHT22;11252;50.596;17.648;2023-08-30T04:11:44;14.80;92.20
22173;DHT22;11252;50.596;17.648;2023-08-30T04:14:11;14.90;92.20
22173;DHT22;11252;50.596;17.648;2023-08-30T04:16:38;14.80;92.20
22173;DHT22;11252;50.596;17.648;2023-08-30T04:19:05;14.80;92.20
22173;DHT22;11252;50.596;17.648;2023-08-30T04:21:32;14.80;92.20
22173;DHT22;11252;50.596;17.648;2023-08-30T04:24:00;14.80;92.20
22173;DHT22;11252;50.596;17.648;2023-08-30T04:26:27;14.80;92.20
22173;DHT22;11252;50.596;17.648;2023-08-30T04:28:54;14.80;92.20
22173;DHT22;11252;50.596;17.648;2023-08-30T04:31:22;14.80;92.20
22173;DHT22;11252;50.596;17.648;2023-08-30T04:33:49;14.80;92.20
22173;DHT22;11252;50.596;17.648;2023-08-30T04:36:19;14.80;92.20
22173;DHT22;11252;50.596;17.648;2023-08-30T04:38:46;14.80;92.20
22173;DHT22;11252;50.596;17.648;2023-08-30T04:41:28;14.80;92.20
22173;DHT22;11252;50.596;17.648;2023-08-30T04:43:55;14.80;92.20
22173;DHT22;11252;50.596;17.648;2023-08-30T04:46:22;14.80;92.20
22173;DHT22;11252;50.596;17.648;2023-08-30T04:48:49;14.80;92.20
22173;DHT22;11252;50.596;17.648;2023-08-30T04:51:17;14.80;92.20
22173;DHT22;11252;50.596;17.648;2023-08-30T04:53:44;14.80;92.20
22173;DHT22;11252;50.596;17.648;2023-08-30T04:56:13;14.80;92.20
22173;DHT22;11252;50.596;17.648;2023-08-30T04:58:40;14.80;92.20
22173;DHT22;11252;50.596;17.648;2023-08-30T05:01:07;14.80;92.20
22173;DHT22;11252;50.596;17.648;2023-08-30T05:03:35;14.80;92.20
22173;DHT22;11252;50.596;17.648;2023-08-30T05:06:02;14.80;92.20
22173;DHT22;11252;50.596;17.648;2023-08-30T05:08:30;14.80;92.20
22173;DHT22;11252;50.596;17.648;2023-08-30T05:10:57;14.90;92.20
22173;DHT22;11252;50.596;17.648;2023-08-30T05:13:23;14.90;92.20
22173;DHT22;11252;50.596;17.648;2023-08-30T05:15:50;14.90;92.20
22173;DHT22;11252;50.596;17.648;2023-08-30T05:18:19;14.90;92.20
22173;DHT22;11252;50.596;17.648;2023-08-30T05:20:46;15.00;92.20
22173;DHT22;11252;50.596;17.648;2023-08-30T05:23:13;14.90;92.20
22173;DHT22;11252;50.596;17.648;2023-08-30T05:25:40;14.90;92.20
22173;DHT22;11252;50.596;17.648;2023-08-30T05:28:07;14.90;92.20
22173;DHT22;11252;50.596;17.648;2023-08-30T05:30:35;14.90;92.20
22173;DHT22;11252;50.596;17.648;2023-08-30T05:33:02;14.90;92.20
22173;DHT22;11252;50.596;17.648;2023-08-30T05:35:29;15.00;92.20
22173;DHT22;11252;50.596;17.648;2023-08-30T05:37:56;15.00;92.20
22173;DHT22;11252;50.596;17.648;2023-08-30T05:40:24;14.90;92.20
22173;DHT22;11252;50.596;17.648;2023-08-30T05:42:54;14.90;92.20
22173;DHT22;11252;50.596;17.648;2023-08-30T05:45:21;14.90;92.20
22173;DHT22;11252;50.596;17.648;2023-08-30T05:47:49;15.00;92.20
22173;DHT22;11252;50.596;17.648;2023-08-30T05:50:16;15.00;92.20
22173;DHT22;11252;50.596;17.648;2023-08-30T05:52:43;15.00;92.20
22173;DHT22;11252;50.596;17.648;2023-08-30T05:55:11;15.00;92.20
22173;DHT22;11252;50.596;17.648;2023-08-30T05:57:39;15.00;92.20
22173;DHT22;11252;50.596;17.648;2023-08-30T06:00:06;15.00;92.20
22173;DHT22;11252;50.596;17.648;2023-08-30T06:02:35;15.00;92.20
22173;DHT22;11252;50.596;17.648;2023-08-30T06:05:02;15.00;92.20
22173;DHT22;11252;50.596;17.648;2023-08-30T06:07:30;15.00;92.20
22173;DHT22;11252;50.596;17.648;2023-08-30T06:09:57;15.00;92.20
22173;DHT22;11252;50.596;17.648;2023-08-30T06:12:25;15.00;92.20
22173;DHT22;11252;50.596;17.648;2023-08-30T06:14:52;15.00;92.20
22173;DHT22;11252;50.596;17.648;2023-08-30T06:17:21;15.00;92.20
22173;DHT22;11252;50.596;17.648;2023-08-30T06:19:48;15.00;92.20
22173;DHT22;11252;50.596;17.648;2023-08-30T06:22:15;15.00;92.20
22173;DHT22;11252;50.596;17.648;2023-08-30T06:24:42;15.00;92.20
22173;DHT22;11252;50.596;17.648;2023-08-30T06:27:09;15.00;92.20
22173;DHT22;11252;50.596;17.648;2023-08-30T06:29:36;15.00;92.20
22173;DHT22;11252;50.596;17.648;2023-08-30T06:32:04;15.00;92.20
22173;DHT22;11252;50.596;17.648;2023-08-30T06:34:32;15.00;92.20
22173;DHT22;11252;50.596;17.648;2023-08-30T06:36:58;15.00;92.20
22173;DHT22;11252;50.596;17.648;2023-08-30T06:39:32;15.00;92.20
22173;DHT22;11252;50.596;17.648;2023-08-30T06:41:59;15.00;92.20
22173;DHT22;11252;50.596;17.648;2023-08-30T06:44:26;15.10;92.20
22173;DHT22;11252;50.596;17.648;2023-08-30T06:46:54;15.10;92.20
22173;DHT22;11252;50.596;17.648;2023-08-30T06:49:21;15.10;92.20
22173;DHT22;11252;50.596;17.648;2023-08-30T06:51:48;15.10;92.20
22173;DHT22;11252;50.596;17.648;2023-08-30T06:54:15;15.10;92.20
22173;DHT22;11252;50.596;17.648;2023-08-30T06:56:58;15.10;92.20
22173;DHT22;11252;50.596;17.648;2023-08-30T06:59:26;15.20;92.20
22173;DHT22;11252;50.596;17.648;2023-08-30T07:01:53;15.10;92.20
22173;DHT22;11252;50.596;17.648;2023-08-30T07:04:20;15.10;92.20
22173;DHT22;11252;50.596;17.648;2023-08-30T07:06:47;15.10;92.20
22173;DHT22;11252;50.596;17.648;2023-08-30T07:09:15;15.20;92.20
22173;DHT22;11252;50.596;17.648;2023-08-30T07:11:42;15.20;92.20
22173;DHT22;11252;50.596;17.648;2023-08-30T07:14:13;15.20;92.20
22173;DHT22;11252;50.596;17.648;2023-08-30T07:16:41;15.20;92.20
22173;DHT22;11252;50.596;17.648;2023-08-30T07:19:08;15.20;92.20
22173;DHT22;11252;50.596;17.648;2023-08-30T07:21:36;15.20;92.20
22173;DHT22;11252;50.596;17.648;2023-08-30T07:24:07;15.30;92.20
22173;DHT22;11252;50.596;17.648;2023-08-30T07:26:35;15.30;92.20
22173;DHT22;11252;50.596;17.648;2023-08-30T07:29:04;15.30;92.20
22173;DHT22;11252;50.596;17.648;2023-08-30T07:31:32;15.30;92.20
22173;DHT22;11252;50.596;17.648;2023-08-30T07:34:00;15.30;92.20
22173;DHT22;11252;50.596;17.648;2023-08-30T07:36:27;15.30;92.20
22173;DHT22;11252;50.596;17.648;2023-08-30T07:39:12;15.30;92.20
22173;DHT22;11252;50.596;17.648;2023-08-30T07:41:39;15.20;92.20
22173;DHT22;11252;50.596;17.648;2023-08-30T07:44:09;15.20;92.20
22173;DHT22;11252;50.596;17.648;2023-08-30T07:46:37;15.20;92.20
22173;DHT22;11252;50.596;17.648;2023-08-30T07:49:07;15.20;92.20
22173;DHT22;11252;50.596;17.648;2023-08-30T07:51:34;15.20;92.20
22173;DHT22;11252;50.596;17.648;2023-08-30T07:54:02;15.30;92.20
22173;DHT22;11252;50.596;17.648;2023-08-30T07:56:31;15.30;92.20
22173;DHT22;11252;50.596;17.648;2023-08-30T07:58:58;15.20;92.20
22173;DHT22;11252;50.596;17.648;2023-08-30T08:01:25;15.20;92.20
22173;DHT22;11252;50.596;17.648;2023-08-30T08:03:55;15.20;92.20
22173;DHT22;11252;50.596;17.648;2023-08-30T08:06:33;15.10;92.20
22173;DHT22;11252;50.596;17.648;2023-08-30T08:09:04;15.10;92.20
22173;DHT22;11252;50.596;17.648;2023-08-30T08:11:32;15.20;92.20
22173;DHT22;11252;50.596;17.648;2023-08-30T08:13:59;15.20;92.20
22173;DHT22;11252;50.596;17.648;2023-08-30T08:16:28;15.30;92.20
22173;DHT22;11252;50.596;17.648;2023-08-30T08:18:56;15.30;92.20
22173;DHT22;11252;50.596;17.648;2023-08-30T08:21:26;15.30;92.20
22173;DHT22;11252;50.596;17.648;2023-08-30T08:23:53;15.30;92.20
22173;DHT22;11252;50.596;17.648;2023-08-30T08:26:21;15.30;92.20
22173;DHT22;11252;50.596;17.648;2023-08-30T08:28:47;15.40;92.20
22173;DHT22;11252;50.596;17.648;2023-08-30T08:31:17;15.40;92.20
22173;DHT22;11252;50.596;17.648;2023-08-30T08:33:45;15.50;92.20
22173;DHT22;11252;50.596;17.648;2023-08-30T08:36:12;15.60;92.20
22173;DHT22;11252;50.596;17.648;2023-08-30T08:38:39;15.60;92.20
22173;DHT22;11252;50.596;17.648;2023-08-30T08:41:06;15.70;92.20
22173;DHT22;11252;50.596;17.648;2023-08-30T08:43:36;15.70;92.20
22173;DHT22;11252;50.596;17.648;2023-08-30T08:46:04;15.70;92.20
22173;DHT22;11252;50.596;17.648;2023-08-30T08:48:39;15.80;92.20
22173;DHT22;11252;50.596;17.648;2023-08-30T08:51:08;15.80;92.20
22173;DHT22;11252;50.596;17.648;2023-08-30T08:53:37;15.80;92.20
22173;DHT22;11252;50.596;17.648;2023-08-30T08:56:04;15.80;92.20
22173;DHT22;11252;50.596;17.648;2023-08-30T08:58:34;15.70;92.20
22173;DHT22;11252;50.596;17.648;2023-08-30T09:01:03;15.70;92.20
22173;DHT22;11252;50.596;17.648;2023-08-30T09:03:33;15.70;92.20
22173;DHT22;11252;50.596;17.648;2023-08-30T09:06:02;15.70;92.20
22173;DHT22;11252;50.596;17.648;2023-08-30T09:08:29;15.70;92.20
22173;DHT22;11252;50.596;17.648;2023-08-30T09:10:59;15.80;92.20
22173;DHT22;11252;50.596;17.648;2023-08-30T09:13:27;15.90;92.20
22173;DHT22;11252;50.596;17.648;2023-08-30T09:16:00;15.90;92.20
22173;DHT22;11252;50.596;17.648;2023-08-30T09:18:32;15.90;92.20
22173;DHT22;11252;50.596;17.648;2023-08-30T09:21:10;16.10;92.20
22173;DHT22;11252;50.596;17.648;2023-08-30T09:23:38;16.30;92.20
22173;DHT22;11252;50.596;17.648;2023-08-30T09:26:05;16.50;92.20
22173;DHT22;11252;50.596;17.648;2023-08-30T09:28:42;16.70;92.20
22173;DHT22;11252;50.596;17.648;2023-08-30T09:31:17;16.90;92.20
22173;DHT22;11252;50.596;17.648;2023-08-30T09:33:49;17.10;92.20
22173;DHT22;11252;50.596;17.648;2023-08-30T09:36:16;17.20;92.20
22173;DHT22;11252;50.596;17.648;2023-08-30T09:38:50;17.20;92.20
22173;DHT22;11252;50.596;17.648;2023-08-30T09:41:17;17.00;92.20
22173;DHT22;11252;50.596;17.648;2023-08-30T09:43:44;17.10;92.20
22173;DHT22;11252;50.596;17.648;2023-08-30T09:46:11;17.30;92.20
22173;DHT22;11252;50.596;17.648;2023-08-30T09:48:43;17.60;92.20
22173;DHT22;11252;50.596;17.648;2023-08-30T09:51:11;17.80;92.20
22173;DHT22;11252;50.596;17.648;2023-08-30T09:53:42;17.80;92.20
22173;DHT22;11252;50.596;17.648;2023-08-30T09:56:31;17.70;92.20
22173;DHT22;11252;50.596;17.648;2023-08-30T09:59:02;17.60;92.20
22173;DHT22;11252;50.596;17.648;2023-08-30T10:01:30;17.60;92.20
22173;DHT22;11252;50.596;17.648;2023-08-30T10:03:58;17.60;92.20
22173;DHT22;11252;50.596;17.648;2023-08-30T10:06:26;17.50;92.20
22173;DHT22;11252;50.596;17.648;2023-08-30T10:08:53;17.40;92.20
22173;DHT22;11252;50.596;17.648;2023-08-30T10:11:21;17.20;92.20
22173;DHT22;11252;50.596;17.648;2023-08-30T10:13:54;17.00;92.20
22173;DHT22;11252;50.596;17.648;2023-08-30T10:16:24;16.80;92.20
22173;DHT22;11252;50.596;17.648;2023-08-30T10:23:29;16.80;92.20
22173;DHT22;11252;50.596;17.648;2023-08-30T10:25:58;16.90;92.20
22173;DHT22;11252;50.596;17.648;2023-08-30T10:28:54;16.90;92.20
22173;DHT22;11252;50.596;17.648;2023-08-30T10:31:45;16.80;92.20
22173;DHT22;11252;50.596;17.648;2023-08-30T10:34:21;16.80;92.20
22173;DHT22;11252;50.596;17.648;2023-08-30T10:37:27;16.70;92.20
22173;DHT22;11252;50.596;17.648;2023-08-30T10:40:11;16.70;92.20
22173;DHT22;11252;50.596;17.648;2023-08-30T10:43:05;16.80;92.20
22173;DHT22;11252;50.596;17.648;2023-08-30T10:45:38;16.80;92.20
22173;DHT22;11252;50.596;17.648;2023-08-30T10:56:10;16.50;92.20
22173;DHT22;11252;50.596;17.648;2023-08-30T10:58:57;16.40;92.20
22173;DHT22;11252;50.596;17.648;2023-08-30T11:01:33;16.40;92.20
22173;DHT22;11252;50.596;17.648;2023-08-30T11:04:11;16.50;92.20
22173;DHT22;11252;50.596;17.648;2023-08-30T11:06:43;16.60;92.20
22173;DHT22;11252;50.596;17.648;2023-08-30T11:09:15;16.80;92.20
22173;DHT22;11252;50.596;17.648;2023-08-30T11:11:46;16.90;92.20
22173;DHT22;11252;50.596;17.648;2023-08-30T11:14:14;16.80;92.20
22173;DHT22;11252;50.596;17.648;2023-08-30T11:16:42;16.90;92.20
22173;DHT22;11252;50.596;17.648;2023-08-30T11:19:10;16.90;92.20
22173;DHT22;11252;50.596;17.648;2023-08-30T11:21:44;16.90;92.20
22173;DHT22;11252;50.596;17.648;2023-08-30T11:24:13;16.80;92.20
22173;DHT22;11252;50.596;17.648;2023-08-30T11:26:41;16.70;92.20
22173;DHT22;11252;50.596;17.648;2023-08-30T11:29:09;16.70;92.20
22173;DHT22;11252;50.596;17.648;2023-08-30T11:31:37;16.70;92.20
22173;DHT22;11252;50.596;17.648;2023-08-30T11:34:04;16.70;92.20
22173;DHT22;11252;50.596;17.648;2023-08-30T11:36:32;16.70;92.20
22173;DHT22;11252;50.596;17.648;2023-08-30T11:39:02;16.70;92.20
22173;DHT22;11252;50.596;17.648;2023-08-30T11:41:31;16.70;92.20
22173;DHT22;11252;50.596;17.648;2023-08-30T11:43:58;16.80;92.20
22173;DHT22;11252;50.596;17.648;2023-08-30T11:46:25;16.80;92.20
22173;DHT22;11252;50.596;17.648;2023-08-30T11:48:53;16.90;92.20
22173;DHT22;11252;50.596;17.648;2023-08-30T11:51:20;16.90;92.20
22173;DHT22;11252;50.596;17.648;2023-08-30T11:53:48;16.90;92.20
22173;DHT22;11252;50.596;17.648;2023-08-30T11:56:16;17.00;92.20
22173;DHT22;11252;50.596;17.648;2023-08-30T11:58:43;16.90;92.20
22173;DHT22;11252;50.596;17.648;2023-08-30T12:01:11;16.80;92.20
22173;DHT22;11252;50.596;17.648;2023-08-30T12:03:40;16.70;92.20
22173;DHT22;11252;50.596;17.648;2023-08-30T12:06:10;16.60;92.20
22173;DHT22;11252;50.596;17.648;2023-08-30T12:08:39;16.50;92.20
22173;DHT22;11252;50.596;17.648;2023-08-30T12:11:17;16.50;92.20
22173;DHT22;11252;50.596;17.648;2023-08-30T12:13:45;16.50;92.20
22173;DHT22;11252;50.596;17.648;2023-08-30T12:16:18;16.60;92.20
22173;DHT22;11252;50.596;17.648;2023-08-30T12:18:45;16.70;92.20
22173;DHT22;11252;50.596;17.648;2023-08-30T12:21:13;16.90;92.20
22173;DHT22;11252;50.596;17.648;2023-08-30T12:23:41;16.90;92.20
22173;DHT22;11252;50.596;17.648;2023-08-30T12:26:09;16.90;92.20
22173;DHT22;11252;50.596;17.648;2023-08-30T12:28:41;16.90;92.20
22173;DHT22;11252;50.596;17.648;2023-08-30T12:31:11;17.00;92.20
22173;DHT22;11252;50.596;17.648;2023-08-30T12:33:39;16.90;92.20
22173;DHT22;11252;50.596;17.648;2023-08-30T12:36:07;16.90;92.20
22173;DHT22;11252;50.596;17.648;2023-08-30T12:38:34;16.80;92.20
22173;DHT22;11252;50.596;17.648;2023-08-30T12:41:01;16.80;92.20
22173;DHT22;11252;50.596;17.648;2023-08-30T12:43:29;16.70;92.20
22173;DHT22;11252;50.596;17.648;2023-08-30T12:45:56;16.70;92.20
22173;DHT22;11252;50.596;17.648;2023-08-30T12:48:23;16.70;92.20
22173;DHT22;11252;50.596;17.648;2023-08-30T12:50:50;16.60;92.20
22173;DHT22;11252;50.596;17.648;2023-08-30T12:53:17;16.60;92.20
22173;DHT22;11252;50.596;17.648;2023-08-30T12:55:45;16.60;92.20
22173;DHT22;11252;50.596;17.648;2023-08-30T12:58:12;16.60;92.20
22173;DHT22;11252;50.596;17.648;2023-08-30T13:00:40;16.60;92.20
22173;DHT22;11252;50.596;17.648;2023-08-30T13:03:08;16.60;92.20
22173;DHT22;11252;50.596;17.648;2023-08-30T13:05:36;16.60;92.20
22173;DHT22;11252;50.596;17.648;2023-08-30T13:08:04;16.70;92.20
22173;DHT22;11252;50.596;17.648;2023-08-30T13:10:31;16.70;92.20
22173;DHT22;11252;50.596;17.648;2023-08-30T13:12:59;16.70;92.20
22173;DHT22;11252;50.596;17.648;2023-08-30T13:15:26;16.70;92.20
22173;DHT22;11252;50.596;17.648;2023-08-30T13:17:53;16.70;92.20
22173;DHT22;11252;50.596;17.648;2023-08-30T13:20:20;16.70;92.20
22173;DHT22;11252;50.596;17.648;2023-08-30T13:22:47;16.70;92.20
22173;DHT22;11252;50.596;17.648;2023-08-30T13:25:15;16.70;92.20
22173;DHT22;11252;50.596;17.648;2023-08-30T13:27:42;16.70;92.20
22173;DHT22;11252;50.596;17.648;2023-08-30T13:30:09;16.70;92.20
22173;DHT22;11252;50.596;17.648;2023-08-30T13:32:37;16.80;92.20
22173;DHT22;11252;50.596;17.648;2023-08-30T13:35:05;16.80;92.20
22173;DHT22;11252;50.596;17.648;2023-08-30T13:37:32;16.90;92.20
22173;DHT22;11252;50.596;17.648;2023-08-30T13:40:00;16.90;92.20
22173;DHT22;11252;50.596;17.648;2023-08-30T13:42:27;17.00;92.20
22173;DHT22;11252;50.596;17.648;2023-08-30T13:45:09;17.10;92.20
22173;DHT22;11252;50.596;17.648;2023-08-30T13:47:36;17.20;92.20
22173;DHT22;11252;50.596;17.648;2023-08-30T13:50:04;17.20;92.20
22173;DHT22;11252;50.596;17.648;2023-08-30T13:52:33;17.20;92.20
22173;DHT22;11252;50.596;17.648;2023-08-30T13:55:03;17.20;92.20
22173;DHT22;11252;50.596;17.648;2023-08-30T13:57:31;17.20;92.20
22173;DHT22;11252;50.596;17.648;2023-08-30T13:59:58;17.10;92.20
22173;DHT22;11252;50.596;17.648;2023-08-30T14:02:26;17.10;92.20
22173;DHT22;11252;50.596;17.648;2023-08-30T14:04:53;17.10;92.20
22173;DHT22;11252;50.596;17.648;2023-08-30T14:07:20;17.00;92.20
22173;DHT22;11252;50.596;17.648;2023-08-30T14:09:47;16.90;92.20
22173;DHT22;11252;50.596;17.648;2023-08-30T14:12:14;16.90;92.20
22173;DHT22;11252;50.596;17.648;2023-08-30T14:14:41;16.90;92.20
22173;DHT22;11252;50.596;17.648;2023-08-30T14:17:11;16.90;92.20
22173;DHT22;11252;50.596;17.648;2023-08-30T14:19:40;16.90;92.20
22173;DHT22;11252;50.596;17.648;2023-08-30T14:22:08;16.80;92.20
22173;DHT22;11252;50.596;17.648;2023-08-30T14:24:35;16.70;92.20
22173;DHT22;11252;50.596;17.648;2023-08-30T14:27:17;16.70;92.20
22173;DHT22;11252;50.596;17.648;2023-08-30T14:29:44;16.60;92.20
22173;DHT22;11252;50.596;17.648;2023-08-30T14:32:12;16.60;92.20
22173;DHT22;11252;50.596;17.648;2023-08-30T14:34:41;16.60;92.20
22173;DHT22;11252;50.596;17.648;2023-08-30T14:37:08;16.60;92.20
22173;DHT22;11252;50.596;17.648;2023-08-30T14:39:35;16.60;92.20
22173;DHT22;11252;50.596;17.648;2023-08-30T14:42:02;16.60;92.20
22173;DHT22;11252;50.596;17.648;2023-08-30T14:44:30;16.60;92.20
22173;DHT22;11252;50.596;17.648;2023-08-30T14:46:57;16.60;92.20
22173;DHT22;11252;50.596;17.648;2023-08-30T14:49:24;16.70;92.20
22173;DHT22;11252;50.596;17.648;2023-08-30T14:51:51;16.70;92.20
22173;DHT22;11252;50.596;17.648;2023-08-30T14:54:18;16.70;92.20
22173;DHT22;11252;50.596;17.648;2023-08-30T14:56:46;16.70;92.20
22173;DHT22;11252;50.596;17.648;2023-08-30T14:59:13;16.70;92.20
22173;DHT22;11252;50.596;17.648;2023-08-30T15:01:40;16.70;92.20
22173;DHT22;11252;50.596;17.648;2023-08-30T15:04:07;16.70;92.20
22173;DHT22;11252;50.596;17.648;2023-08-30T15:06:35;16.70;92.20
22173;DHT22;11252;50.596;17.648;2023-08-30T15:09:03;16.70;92.20
22173;DHT22;11252;50.596;17.648;2023-08-30T15:11:30;16.70;92.20
22173;DHT22;11252;50.596;17.648;2023-08-30T15:13:58;16.70;92.20
22173;DHT22;11252;50.596;17.648;2023-08-30T15:16:25;16.70;92.20
22173;DHT22;11252;50.596;17.648;2023-08-30T15:18:52;16.80;92.20
22173;DHT22;11252;50.596;17.648;2023-08-30T15:21:19;17.00;92.20
22173;DHT22;11252;50.596;17.648;2023-08-30T15:23:46;17.10;92.20
22173;DHT22;11252;50.596;17.648;2023-08-30T15:26:14;17.20;92.20
22173;DHT22;11252;50.596;17.648;2023-08-30T15:28:43;17.20;92.20
22173;DHT22;11252;50.596;17.648;2023-08-30T15:31:15;17.20;92.20
22173;DHT22;11252;50.596;17.648;2023-08-30T15:33:42;17.10;92.20
22173;DHT22;11252;50.596;17.648;2023-08-30T15:36:09;17.10;92.20
22173;DHT22;11252;50.596;17.648;2023-08-30T15:38:36;17.00;92.20
22173;DHT22;11252;50.596;17.648;2023-08-30T15:41:08;17.00;92.20
22173;DHT22;11252;50.596;17.648;2023-08-30T15:43:38;17.00;92.20
22173;DHT22;11252;50.596;17.648;2023-08-30T15:46:10;17.00;92.20
22173;DHT22;11252;50.596;17.648;2023-08-30T15:48:39;17.00;92.20